createdAt,value
2017-05-13T00:01:38.921Z,13.50
2017-05-13T00:04:06.804Z,13.60
2017-05-13T00:06:34.678Z,13.80
2017-05-13T00:09:02.591Z,13.60
2017-05-13T00:11:30.824Z,13.40
2017-05-13T00:13:58.707Z,13.30
2017-05-13T00:16:26.954Z,13.10
2017-05-13T00:18:54.828Z,13.00
2017-05-13T00:21:22.291Z,13.00
2017-05-13T00:23:50.176Z,13.10
2017-05-13T00:26:17.638Z,13.10
2017-05-13T00:28:45.508Z,13.10
2017-05-13T00:31:12.976Z,13.10
2017-05-13T00:33:40.856Z,13.10
2017-05-13T00:36:08.319Z,13.10
2017-05-13T00:38:36.195Z,13.10
2017-05-13T00:41:04.051Z,13.20
2017-05-13T00:43:31.927Z,13.20
2017-05-13T00:45:59.394Z,13.20
2017-05-13T00:48:26.871Z,13.00
2017-05-13T00:50:54.771Z,13.00
2017-05-13T00:53:22.627Z,13.00
2017-05-13T00:55:50.479Z,13.00
2017-05-13T00:58:17.963Z,13.00
2017-05-13T01:00:45.830Z,12.90
2017-05-13T01:03:13.320Z,12.80
2017-05-13T01:05:40.781Z,12.80
2017-05-13T01:08:08.656Z,12.70
2017-05-13T01:10:36.512Z,12.50
2017-05-13T01:13:03.995Z,12.60
2017-05-13T01:15:31.459Z,12.50
2017-05-13T01:17:58.934Z,12.50
2017-05-13T01:20:26.782Z,12.40
2017-05-13T01:22:54.651Z,12.40
2017-05-13T01:25:22.514Z,12.40
2017-05-13T01:27:50.374Z,12.40
2017-05-13T01:30:18.354Z,12.30
2017-05-13T01:32:46.212Z,12.30
2017-05-13T01:35:13.675Z,12.30
2017-05-13T01:37:42.024Z,12.30
2017-05-13T01:40:09.883Z,12.20
2017-05-13T01:42:37.346Z,12.30
2017-05-13T01:45:05.620Z,12.20
2017-05-13T01:47:33.470Z,12.20
2017-05-13T01:50:01.324Z,12.20
2017-05-13T01:52:29.283Z,12.10
2017-05-13T01:54:56.750Z,12.10
2017-05-13T01:57:25.007Z,12.10
2017-05-13T01:59:52.984Z,12.10
2017-05-13T02:02:20.838Z,12.10
2017-05-13T02:04:48.695Z,12.10
2017-05-13T02:07:16.575Z,11.90
2017-05-13T02:09:44.040Z,11.90
2017-05-13T02:12:11.913Z,11.90
2017-05-13T02:14:40.323Z,11.90
2017-05-13T02:17:08.179Z,11.90
2017-05-13T02:19:36.044Z,11.80
2017-05-13T02:22:04.017Z,11.60
2017-05-13T02:24:31.874Z,11.60
2017-05-13T02:26:59.731Z,11.70
2017-05-13T02:29:27.728Z,11.60
2017-05-13T02:31:55.587Z,11.40
2017-05-13T02:34:23.442Z,11.30
2017-05-13T02:36:51.523Z,11.40
2017-05-13T02:39:19.376Z,11.50
2017-05-13T02:41:47.226Z,11.60
2017-05-13T02:44:15.024Z,11.60
2017-05-13T02:46:42.878Z,11.50
2017-05-13T02:49:10.343Z,11.50
2017-05-13T02:51:37.818Z,11.60
2017-05-13T02:54:05.675Z,11.60
2017-05-13T02:56:33.535Z,11.60
2017-05-13T02:59:01.708Z,11.40
2017-05-13T03:01:29.172Z,11.40
2017-05-13T03:03:57.027Z,11.40
2017-05-13T03:06:25.210Z,11.40
2017-05-13T03:08:53.066Z,11.40
2017-05-13T03:11:20.530Z,11.40
2017-05-13T03:13:48.416Z,11.40
2017-05-13T03:16:16.275Z,11.40
2017-05-13T03:18:44.138Z,11.20
2017-05-13T03:21:11.883Z,11.20
2017-05-13T03:23:39.739Z,11.10
2017-05-13T03:26:07.594Z,11.00
2017-05-13T03:28:35.962Z,11.10
2017-05-13T03:31:03.818Z,11.10
2017-05-13T03:33:32.048Z,11.10
2017-05-13T03:35:59.527Z,11.10
2017-05-13T03:38:27.380Z,11.30
2017-05-13T03:40:55.280Z,11.20
2017-05-13T03:43:23.511Z,11.20
2017-05-13T03:45:51.391Z,11.10
2017-05-13T03:48:19.258Z,11.00
2017-05-13T03:50:47.416Z,11.00
2017-05-13T03:53:15.280Z,10.90
2017-05-13T03:55:43.149Z,10.80
2017-05-13T03:58:11.314Z,10.80
2017-05-13T04:00:38.778Z,10.80
2017-05-13T04:03:06.639Z,10.90
2017-05-13T04:05:35.025Z,11.00
2017-05-13T04:08:02.616Z,11.00
2017-05-13T04:10:30.093Z,11.10
2017-05-13T04:12:58.195Z,11.10
2017-05-13T04:15:26.056Z,11.10
2017-05-13T04:17:53.921Z,11.10
2017-05-13T04:20:22.014Z,11.10
2017-05-13T04:22:49.874Z,11.30
2017-05-13T04:25:17.731Z,11.40
2017-05-13T04:27:45.708Z,11.40
2017-05-13T04:30:13.175Z,11.50
2017-05-13T04:32:41.032Z,11.60
2017-05-13T04:35:09.312Z,11.70
2017-05-13T04:37:37.184Z,11.70
2017-05-13T04:40:05.050Z,11.80
2017-05-13T04:42:33.211Z,11.80
2017-05-13T04:45:01.071Z,11.80
2017-05-13T04:47:28.546Z,11.80
2017-05-13T04:49:56.426Z,11.90
2017-05-13T04:52:24.295Z,11.90
2017-05-13T04:54:51.767Z,11.90
2017-05-13T04:57:19.794Z,11.90
2017-05-13T04:59:47.659Z,12.10
2017-05-13T05:02:15.136Z,12.10
2017-05-13T05:04:43.228Z,12.30
2017-05-13T05:07:10.699Z,12.30
2017-05-13T05:09:38.560Z,12.40
2017-05-13T05:12:06.907Z,12.50
2017-05-13T05:14:34.772Z,12.50
2017-05-13T05:17:02.636Z,12.50
2017-05-13T05:19:30.812Z,12.50
2017-05-13T05:21:58.672Z,12.60
2017-05-13T05:24:26.144Z,12.60
2017-05-13T05:26:53.732Z,12.60
2017-05-13T05:29:21.595Z,12.60
2017-05-13T05:31:49.460Z,12.60
2017-05-13T05:34:17.490Z,12.60
2017-05-13T05:36:45.351Z,12.60
2017-05-13T05:39:13.316Z,12.70
2017-05-13T05:41:41.078Z,12.70
2017-05-13T05:44:08.943Z,12.70
2017-05-13T05:46:36.412Z,12.70
2017-05-13T05:49:04.295Z,12.90
2017-05-13T05:51:32.159Z,12.90
2017-05-13T05:53:59.630Z,12.90
2017-05-13T05:56:27.923Z,13.00
2017-05-13T05:58:55.791Z,13.00
2017-05-13T06:01:24.027Z,13.10
2017-05-13T06:03:51.822Z,13.10
2017-05-13T06:06:19.681Z,13.40
2017-05-13T06:08:47.537Z,13.60
2017-05-13T06:11:15.459Z,13.70
2017-05-13T06:13:42.923Z,13.90
2017-05-13T06:16:10.783Z,14.10
2017-05-13T06:18:38.263Z,14.20
2017-05-13T06:21:06.130Z,14.30
2017-05-13T06:23:33.994Z,14.40
2017-05-13T06:26:02.363Z,14.50
2017-05-13T06:28:30.235Z,14.80
2017-05-13T06:30:58.094Z,15.00
2017-05-13T06:33:26.227Z,15.10
2017-05-13T06:35:54.097Z,15.30
2017-05-13T06:38:21.563Z,15.30
2017-05-13T06:40:49.867Z,15.70
2017-05-13T06:43:17.332Z,15.70
2017-05-13T06:45:45.191Z,15.90
2017-05-13T06:48:12.798Z,15.90
2017-05-13T06:50:40.659Z,15.80
2017-05-13T06:53:08.892Z,15.80
2017-05-13T06:55:37.063Z,15.60
2017-05-13T06:58:04.931Z,15.60
2017-05-13T07:00:32.798Z,15.60
2017-05-13T07:03:00.921Z,15.60
2017-05-13T07:05:28.783Z,15.50
2017-05-13T07:07:57.015Z,15.40
2017-05-13T07:10:25.182Z,15.40
2017-05-13T07:12:53.047Z,15.40
2017-05-13T07:15:20.910Z,15.40
2017-05-13T07:17:49.093Z,15.40
2017-05-13T07:20:16.959Z,15.40
2017-05-13T07:22:44.424Z,15.40
2017-05-13T07:25:12.700Z,15.50
2017-05-13T07:27:40.558Z,15.60
2017-05-13T07:30:08.420Z,15.50
2017-05-13T07:32:36.590Z,15.40
2017-05-13T07:35:04.451Z,15.50
2017-05-13T07:37:32.308Z,15.50
2017-05-13T07:40:00.493Z,15.80
2017-05-13T07:42:28.346Z,16.00
2017-05-13T07:44:55.816Z,16.00
2017-05-13T07:47:23.906Z,16.00
2017-05-13T07:49:51.766Z,15.90
2017-05-13T07:52:19.627Z,16.00
2017-05-13T07:54:47.386Z,16.00
2017-05-13T07:57:15.255Z,16.00
2017-05-13T07:59:43.128Z,16.00
2017-05-13T08:02:11.290Z,16.20
2017-05-13T08:04:38.751Z,16.20
2017-05-13T08:07:06.223Z,16.30
2017-05-13T08:09:34.312Z,17.10
2017-05-13T08:12:02.517Z,17.10
2017-05-13T08:14:30.386Z,17.70
2017-05-13T08:16:58.533Z,17.90
2017-05-13T08:19:26.390Z,17.90
2017-05-13T08:21:54.259Z,18.10
2017-05-13T08:24:21.727Z,18.10
2017-05-13T08:26:49.198Z,18.00
2017-05-13T08:29:18.163Z,17.60
2017-05-13T08:31:46.026Z,17.70
2017-05-13T08:34:13.882Z,17.50
2017-05-13T08:36:41.663Z,17.50
2017-05-13T08:39:09.518Z,17.70
2017-05-13T08:41:37.370Z,17.80
2017-05-13T08:44:05.119Z,17.80
2017-05-13T08:46:32.980Z,17.50
2017-05-13T08:49:00.842Z,17.60
2017-05-13T08:51:29.022Z,17.60
2017-05-13T08:53:56.884Z,17.60
2017-05-13T08:56:24.347Z,17.60
2017-05-13T08:58:52.114Z,17.80
2017-05-13T09:01:19.579Z,17.70
2017-05-13T09:03:47.438Z,17.50
2017-05-13T09:06:15.303Z,17.50
2017-05-13T09:08:43.166Z,17.90
2017-05-13T09:11:11.031Z,17.90
2017-05-13T09:13:39.163Z,18.00
2017-05-13T09:16:07.027Z,18.00
2017-05-13T09:18:34.887Z,18.20
2017-05-13T09:21:03.043Z,18.20
2017-05-13T09:23:30.915Z,18.00
2017-05-13T09:25:59.151Z,18.00
2017-05-13T09:28:27.934Z,17.70
2017-05-13T09:30:55.798Z,17.70
2017-05-13T09:33:23.658Z,17.70
2017-05-13T09:35:51.803Z,18.10
2017-05-13T09:38:19.662Z,18.30
2017-05-13T09:40:47.126Z,18.30
2017-05-13T09:43:15.594Z,18.60
2017-05-13T09:45:43.070Z,18.60
2017-05-13T09:48:10.931Z,18.70
2017-05-13T09:50:39.074Z,18.80
2017-05-13T09:53:06.930Z,18.90
2017-05-13T09:55:34.536Z,18.90
2017-05-13T09:58:02.196Z,19.20
2017-05-13T10:00:30.059Z,19.70
2017-05-13T10:02:58.084Z,19.60
2017-05-13T10:05:26.179Z,19.60
2017-05-13T10:07:54.038Z,19.70
2017-05-13T10:10:21.902Z,19.70
2017-05-13T10:12:50.142Z,19.60
2017-05-13T10:15:17.605Z,19.60
2017-05-13T10:17:45.463Z,19.40
2017-05-13T10:20:13.133Z,19.40
2017-05-13T10:22:40.995Z,19.90
2017-05-13T10:25:08.964Z,20.10
2017-05-13T10:27:37.247Z,19.90
2017-05-13T10:30:05.114Z,20.00
2017-05-13T10:32:32.978Z,19.90
2017-05-13T10:35:01.243Z,19.90
2017-05-13T10:37:29.098Z,20.00
2017-05-13T10:39:57.226Z,20.00
2017-05-13T10:42:25.289Z,20.10
2017-05-13T10:44:53.147Z,20.10
2017-05-13T10:47:21.002Z,20.40
2017-05-13T10:49:48.749Z,20.40
2017-05-13T10:52:16.599Z,20.50
2017-05-13T10:54:44.456Z,20.40
2017-05-13T10:57:12.654Z,20.60
2017-05-13T10:59:40.507Z,20.40
2017-05-13T11:02:08.375Z,20.60
2017-05-13T11:04:36.252Z,20.70
2017-05-13T11:07:04.328Z,20.90
2017-05-13T11:09:32.178Z,21.00
2017-05-13T11:12:00.463Z,21.10
2017-05-13T11:14:27.931Z,21.10
2017-05-13T11:16:55.791Z,21.40
2017-05-13T11:19:24.068Z,21.30
2017-05-13T11:21:51.923Z,21.10
2017-05-13T11:24:19.780Z,21.10
2017-05-13T11:26:47.973Z,20.90
2017-05-13T11:29:15.832Z,20.70
2017-05-13T11:31:43.294Z,20.70
2017-05-13T11:34:11.569Z,21.30
2017-05-13T11:36:39.439Z,21.40
2017-05-13T11:39:07.300Z,21.10
2017-05-13T11:41:35.488Z,21.10
2017-05-13T11:44:03.356Z,21.40
2017-05-13T11:46:31.221Z,21.60
2017-05-13T11:48:59.383Z,21.70
2017-05-13T11:51:26.842Z,21.70
2017-05-13T11:53:54.703Z,21.80
2017-05-13T11:56:22.671Z,21.80
2017-05-13T11:58:50.140Z,21.80
2017-05-13T12:01:18.003Z,22.10
2017-05-13T12:03:46.282Z,22.00
2017-05-13T12:06:14.142Z,22.20
2017-05-13T12:08:41.999Z,21.80
2017-05-13T12:11:10.175Z,21.70
2017-05-13T12:13:38.033Z,21.60
2017-05-13T12:16:05.642Z,21.60
2017-05-13T12:18:34.079Z,21.50
2017-05-13T12:21:01.935Z,21.50
2017-05-13T12:23:29.403Z,21.50
2017-05-13T12:25:57.681Z,21.70
2017-05-13T12:28:25.542Z,21.90
2017-05-13T12:30:53.394Z,22.00
2017-05-13T12:33:21.582Z,22.00
2017-05-13T12:35:49.438Z,22.00
2017-05-13T12:38:17.296Z,21.80
2017-05-13T12:40:45.485Z,21.70
2017-05-13T12:43:13.343Z,21.80
2017-05-13T12:45:41.200Z,21.90
2017-05-13T12:48:09.179Z,22.00
2017-05-13T12:50:37.039Z,22.00
2017-05-13T12:53:04.891Z,21.80
2017-05-13T12:55:32.679Z,21.80
2017-05-13T12:58:00.531Z,21.30
2017-05-13T13:00:27.998Z,21.30
2017-05-13T13:02:55.870Z,21.40
2017-05-13T13:05:23.717Z,21.70
2017-05-13T13:07:51.187Z,21.70
2017-05-13T13:10:19.546Z,22.50
2017-05-13T13:12:47.399Z,22.30
2017-05-13T13:15:15.259Z,22.10
2017-05-13T13:17:43.446Z,22.20
2017-05-13T13:20:11.315Z,22.40
2017-05-13T13:22:38.774Z,22.50
2017-05-13T13:25:07.207Z,22.10
2017-05-13T13:27:35.068Z,22.00
2017-05-13T13:30:02.921Z,21.80
2017-05-13T13:32:30.788Z,21.70
2017-05-13T13:34:58.654Z,21.60
2017-05-13T13:37:26.824Z,21.50
2017-05-13T13:39:54.683Z,21.60
2017-05-13T13:42:22.146Z,21.60
2017-05-13T13:44:50.417Z,21.90
2017-05-13T13:47:18.279Z,21.70
2017-05-13T13:49:46.135Z,21.50
2017-05-13T13:52:14.322Z,21.50
2017-05-13T13:54:42.175Z,21.90
2017-05-13T13:57:10.030Z,22.20
2017-05-13T13:59:37.707Z,22.20
2017-05-13T14:02:05.174Z,22.30
2017-05-13T14:04:32.642Z,22.40
2017-05-13T14:07:00.615Z,22.50
2017-05-13T14:09:28.470Z,22.50
2017-05-13T14:11:56.336Z,22.90
2017-05-13T14:14:24.191Z,22.90
2017-05-13T14:16:52.055Z,22.90
2017-05-13T14:19:19.910Z,22.80
2017-05-13T14:21:48.059Z,22.60
2017-05-13T14:24:15.913Z,22.70
2017-05-13T14:26:44.151Z,22.60
2017-05-13T14:29:12.034Z,22.70
2017-05-13T14:31:39.490Z,22.70
2017-05-13T14:34:07.341Z,22.80
2017-05-13T14:36:35.506Z,22.80
2017-05-13T14:39:03.368Z,22.90
2017-05-13T14:41:31.220Z,23.00
2017-05-13T14:43:59.203Z,23.00
2017-05-13T14:46:28.238Z,23.10
2017-05-13T14:48:56.474Z,23.30
2017-05-13T14:51:24.635Z,23.20
2017-05-13T14:53:52.494Z,23.00
2017-05-13T14:56:19.959Z,23.00
2017-05-13T14:58:47.929Z,23.00
2017-05-13T15:01:15.391Z,23.10
2017-05-13T15:03:43.254Z,23.20
2017-05-13T15:06:11.526Z,23.30
2017-05-13T15:08:38.983Z,23.30
2017-05-13T15:11:06.843Z,23.00
2017-05-13T15:13:35.212Z,23.00
2017-05-13T15:16:02.682Z,23.00
2017-05-13T15:18:30.139Z,23.00
2017-05-13T15:20:57.962Z,23.20
2017-05-13T15:23:25.898Z,23.20
2017-05-13T15:25:53.756Z,23.10
2017-05-13T15:28:21.743Z,23.10
2017-05-13T15:30:49.599Z,23.30
2017-05-13T15:33:17.451Z,23.40
2017-05-13T15:35:45.530Z,23.40
2017-05-13T15:38:13.388Z,23.20
2017-05-13T15:40:41.240Z,23.10
2017-05-13T15:43:09.518Z,23.20
2017-05-13T15:45:37.375Z,23.40
2017-05-13T15:48:04.835Z,23.40
2017-05-13T15:50:32.804Z,23.40
2017-05-13T15:53:00.663Z,23.60
2017-05-13T15:55:28.128Z,23.60
2017-05-13T15:57:56.216Z,23.40
2017-05-13T16:00:24.075Z,23.50
2017-05-13T16:02:51.935Z,23.40
2017-05-13T16:05:20.011Z,23.20
2017-05-13T16:07:47.871Z,23.30
2017-05-13T16:10:15.724Z,23.20
2017-05-13T16:12:43.594Z,23.20
2017-05-13T16:15:11.467Z,23.30
2017-05-13T16:17:39.329Z,23.20
2017-05-13T16:20:07.190Z,23.20
2017-05-13T16:22:35.060Z,22.90
2017-05-13T16:25:02.924Z,22.80
2017-05-13T16:27:31.055Z,22.80
2017-05-13T16:29:58.911Z,22.30
2017-05-13T16:32:27.140Z,22.50
2017-05-13T16:34:55.142Z,22.70
2017-05-13T16:37:22.616Z,22.70
2017-05-13T16:39:50.477Z,22.50
2017-05-13T16:42:18.862Z,22.60
2017-05-13T16:44:46.725Z,22.90
2017-05-13T16:47:14.954Z,23.00
2017-05-13T16:49:43.114Z,23.00
2017-05-13T16:52:10.971Z,22.70
2017-05-13T16:54:38.427Z,22.70
2017-05-13T16:57:06.323Z,22.50
2017-05-13T16:59:34.170Z,22.80
2017-05-13T17:02:02.029Z,23.10
2017-05-13T17:04:30.011Z,23.10
2017-05-13T17:06:57.870Z,23.60
2017-05-13T17:09:25.729Z,23.30
2017-05-13T17:11:53.907Z,22.90
2017-05-13T17:14:21.777Z,22.40
2017-05-13T17:16:49.649Z,22.50
2017-05-13T17:19:17.830Z,22.60
2017-05-13T17:21:45.711Z,22.40
2017-05-13T17:24:13.192Z,22.40
2017-05-13T17:26:41.426Z,22.70
2017-05-13T17:29:09.291Z,22.30
2017-05-13T17:31:37.209Z,22.10
2017-05-13T17:34:05.639Z,22.30
2017-05-13T17:36:33.508Z,22.50
2017-05-13T17:39:01.378Z,22.30
2017-05-13T17:41:29.539Z,22.30
2017-05-13T17:43:57.412Z,22.10
2017-05-13T17:46:26.121Z,21.90
2017-05-13T17:48:54.675Z,21.70
2017-05-13T17:51:22.655Z,21.60
2017-05-13T17:53:51.301Z,21.50
2017-05-13T17:56:20.118Z,21.30
2017-05-13T17:58:48.423Z,21.10
2017-05-13T18:01:16.521Z,21.10
2017-05-13T18:03:44.399Z,21.00
2017-05-13T18:06:12.036Z,20.80
2017-05-13T18:08:41.236Z,20.60
2017-05-13T18:11:09.713Z,20.50
2017-05-13T18:13:38.240Z,20.40
2017-05-13T18:16:05.736Z,20.40
2017-05-13T18:18:34.251Z,20.30
2017-05-13T18:21:03.392Z,20.40
2017-05-13T18:23:31.637Z,20.30
2017-05-13T18:26:00.028Z,20.20
2017-05-13T18:28:28.448Z,20.10
2017-05-13T18:30:56.565Z,20.10
2017-05-13T18:33:24.429Z,20.10
2017-05-13T18:35:53.803Z,20.10
2017-05-13T18:38:21.577Z,20.10
2017-05-13T18:40:49.743Z,19.20
2017-05-13T18:43:18.553Z,18.70
2017-05-13T18:45:46.925Z,18.40
2017-05-13T18:48:14.931Z,18.00
2017-05-13T18:50:43.694Z,18.00
2017-05-13T18:53:11.639Z,18.00
2017-05-13T18:55:39.780Z,17.90
2017-05-13T18:58:08.192Z,17.80
2017-05-13T19:00:36.205Z,17.70
2017-05-13T19:03:04.780Z,17.90
2017-05-13T19:05:33.068Z,18.00
2017-05-13T19:08:01.332Z,17.90
2017-05-13T19:10:29.808Z,17.90
2017-05-13T19:12:57.683Z,17.40
2017-05-13T19:15:25.163Z,17.40
2017-05-13T19:17:53.268Z,16.90
2017-05-13T19:20:21.576Z,16.60
2017-05-13T19:22:49.690Z,16.50
2017-05-13T19:25:18.022Z,16.30
2017-05-13T19:27:45.956Z,16.30
2017-05-13T19:30:14.164Z,16.30
2017-05-13T19:32:42.262Z,16.30
2017-05-13T19:35:10.007Z,16.50
2017-05-13T19:37:37.991Z,16.40
2017-05-13T19:40:06.139Z,16.20
2017-05-13T19:42:33.728Z,16.20
2017-05-13T19:45:01.624Z,16.20
2017-05-13T19:47:30.808Z,16.20
2017-05-13T19:49:58.414Z,16.00
2017-05-13T19:52:26.495Z,15.80
2017-05-13T19:54:54.478Z,15.80
2017-05-13T19:57:22.450Z,15.70
2017-05-13T19:59:50.367Z,15.70
2017-05-13T20:02:18.932Z,15.70
2017-05-13T20:04:47.051Z,15.70
2017-05-13T20:07:14.737Z,15.70
2017-05-13T20:09:43.613Z,15.50
2017-05-13T20:12:12.076Z,15.50
2017-05-13T20:14:40.245Z,15.40
2017-05-13T20:17:09.168Z,15.40
2017-05-13T20:19:37.831Z,15.40
2017-05-13T20:22:06.107Z,15.40
2017-05-13T20:24:34.530Z,15.50
2017-05-13T20:27:02.421Z,15.40
2017-05-13T20:29:30.369Z,15.40
2017-05-13T20:31:58.543Z,15.50
2017-05-13T20:34:26.512Z,15.60
2017-05-13T20:36:54.396Z,15.60
2017-05-13T20:39:22.407Z,15.30
2017-05-13T20:41:50.493Z,15.30
2017-05-13T20:44:19.298Z,15.30
2017-05-13T20:46:48.426Z,15.30
2017-05-13T20:49:16.149Z,15.30
2017-05-13T20:51:44.615Z,15.00
2017-05-13T20:54:12.673Z,15.00
2017-05-13T20:56:40.750Z,14.90
2017-05-13T20:59:08.963Z,14.90
2017-05-13T21:01:36.846Z,14.80
2017-05-13T21:04:06.041Z,14.60
2017-05-13T21:06:34.854Z,14.60
2017-05-13T21:09:03.690Z,14.70
2017-05-13T21:11:32.166Z,14.80
2017-05-13T21:14:00.052Z,14.80
2017-05-13T21:16:27.928Z,14.80
2017-05-13T21:18:56.103Z,14.80
2017-05-13T21:21:23.983Z,14.80
2017-05-13T21:23:51.864Z,14.90
2017-05-13T21:26:19.685Z,14.90
2017-05-13T21:28:47.568Z,14.70
2017-05-13T21:31:15.450Z,14.50
2017-05-13T21:33:43.591Z,14.40
2017-05-13T21:36:11.480Z,14.40
2017-05-13T21:38:39.366Z,14.30
2017-05-13T21:41:07.074Z,14.30
2017-05-13T21:43:34.948Z,14.10
2017-05-13T21:46:02.843Z,14.00
2017-05-13T21:48:30.913Z,14.00
2017-05-13T21:50:58.792Z,14.00
2017-05-13T21:53:26.677Z,14.00
2017-05-13T21:55:54.452Z,14.00
2017-05-13T21:58:22.395Z,13.90
2017-05-13T22:00:50.161Z,14.00
2017-05-13T22:03:18.612Z,14.10
2017-05-13T22:05:47.628Z,14.10
2017-05-13T22:08:16.089Z,14.10
2017-05-13T22:10:45.053Z,14.10
2017-05-13T22:13:13.462Z,14.20
2017-05-13T22:15:41.335Z,14.20
2017-05-13T22:18:09.360Z,14.10
2017-05-13T22:20:37.473Z,14.20
2017-05-13T22:23:05.508Z,14.20
2017-05-13T22:25:34.685Z,14.20
2017-05-13T22:28:03.518Z,14.10
2017-05-13T22:30:31.753Z,14.10
2017-05-13T22:33:00.115Z,14.00
2017-05-13T22:35:28.944Z,13.90
2017-05-13T22:37:56.957Z,14.00
2017-05-13T22:40:25.059Z,14.00
2017-05-13T22:42:53.257Z,14.00
2017-05-13T22:45:21.210Z,14.00
2017-05-13T22:47:49.993Z,13.90
2017-05-13T22:50:18.692Z,14.00
2017-05-13T22:52:47.166Z,14.00
2017-05-13T22:55:16.283Z,13.90
2017-05-13T22:57:44.831Z,13.90
2017-05-13T23:00:12.825Z,13.90
2017-05-13T23:02:40.987Z,13.90
2017-05-13T23:05:09.292Z,13.90
2017-05-13T23:07:36.839Z,13.90
2017-05-13T23:10:06.093Z,13.80
2017-05-13T23:12:34.398Z,13.70
2017-05-13T23:15:02.046Z,13.70
2017-05-13T23:17:30.293Z,13.70
2017-05-13T23:19:57.792Z,13.70
2017-05-13T23:22:26.287Z,13.80
2017-05-13T23:24:54.629Z,13.80
2017-05-13T23:27:23.152Z,13.80
2017-05-13T23:29:51.209Z,13.80
2017-05-13T23:32:20.333Z,13.80
2017-05-13T23:34:49.200Z,13.80
2017-05-13T23:37:17.723Z,13.80
2017-05-13T23:39:46.427Z,13.80
2017-05-13T23:42:14.325Z,13.70
2017-05-13T23:44:42.306Z,13.70
2017-05-13T23:47:11.230Z,13.70
2017-05-13T23:49:39.609Z,13.70
2017-05-13T23:52:07.907Z,13.80
2017-05-13T23:54:35.763Z,13.80
2017-05-13T23:57:04.106Z,13.80
2017-05-13T23:59:33.563Z,13.70
